Time;durP1;ratioP1;P1;durP2;ratioP2;P2;SDS_P1;SDS_P2;PMS_P1;PMS_P2;Temp;Humidity;BMP_temperature;BMP_pressure;BME280_temperature;BME280_humidity;BME280_pressure;Samples;Min_cycle;Max_cycle;Signal;HPM_P1;HPM_P2
2023/11/11 00:01:43;;;;;;;;;9.33;4.00;;;;;11.51;100.00;99955.22;6169106;23;44867;-90
2023/11/11 00:04:09;;;;;;;;;7.00;6.00;;;;;11.48;100.00;99971.22;6197222;23;44717;-90
2023/11/11 00:06:34;;;;;;;;;9.00;4.67;;;;;11.46;100.00;99978.31;6198416;22;44787;-90
2023/11/11 00:08:59;;;;;;;;;7.00;6.00;;;;;11.43;100.00;99967.66;6197879;23;45032;-88
2023/11/11 00:11:25;;;;;;;;;7.67;6.67;;;;;11.49;100.00;99989.84;6198977;22;45211;-88
2023/11/11 00:13:51;;;;;;;;;4.00;4.00;;;;;11.28;100.00;99961.47;6171330;23;45378;-90
2023/11/11 00:16:18;;;;;;;;;5.33;5.33;;;;;11.51;100.00;99992.50;6145065;23;45303;-90
2023/11/11 00:18:43;;;;;;;;;7.00;5.33;;;;;11.33;100.00;99966.78;6169337;23;47197;-90
2023/11/11 00:21:11;;;;;;;;;3.67;3.67;;;;;11.16;100.00;99940.19;6194411;23;44876;-90
2023/11/11 00:23:37;;;;;;;;;3.00;3.00;;;;;11.24;100.00;99961.47;6169617;23;44760;-90
2023/11/11 00:26:03;;;;;;;;;7.67;7.67;;;;;11.14;100.00;99944.63;6169142;23;44879;-90
2023/11/11 00:28:29;;;;;;;;;6.00;2.00;;;;;11.27;100.00;99973.03;6195544;23;45293;-91
2023/11/11 00:30:55;;;;;;;;;3.00;3.00;;;;;11.25;100.00;99969.47;6194468;23;44758;-90
2023/11/11 00:33:21;;;;;;;;;3.33;1.67;;;;;11.19;100.00;99948.19;6192975;22;44787;-87
2023/11/11 00:35:46;;;;;;;;;4.67;4.67;;;;;11.21;100.00;99962.38;6224074;22;45310;-90
2023/11/11 00:38:14;;;;;;;;;8.00;4.00;;;;;11.34;100.00;99972.09;6223050;22;46669;-90
2023/11/11 00:40:40;;;;;;;;;3.00;3.00;;;;;11.19;100.00;99969.47;6197933;22;45655;-91
2023/11/11 00:43:05;;;;;;;;;3.33;3.33;;;;;11.14;100.00;99957.94;6199657;22;44805;-88
2023/11/11 00:45:32;;;;;;;;;3.67;3.00;;;;;11.05;100.00;99952.63;6199022;22;44911;-89
2023/11/11 00:47:57;;;;;;;;;5.33;4.00;;;;;11.13;100.00;99966.78;6201218;22;45380;-90
2023/11/11 00:50:24;;;;;;;;;4.00;3.00;;;;;11.21;100.00;99957.94;6227747;22;45246;-90
2023/11/11 00:52:49;;;;;;;;;2.00;2.00;;;;;11.16;100.00;99972.13;6227283;22;44710;-88
2023/11/11 00:55:15;;;;;;;;;5.33;4.67;;;;;11.09;100.00;99967.69;6227256;22;45222;-89
2023/11/11 00:57:43;;;;;;;;;4.00;3.00;;;;;11.16;100.00;99974.78;6226688;22;45359;-90
2023/11/11 01:00:19;;;;;;;;;2.33;2.33;;;;;11.20;100.00;99988.09;6224475;22;44809;-88
2023/11/11 01:02:44;;;;;;;;;2.00;2.00;;;;;11.18;100.00;99986.31;6226398;22;44800;-91
2023/11/11 01:05:11;;;;;;;;;7.67;4.00;;;;;11.15;100.00;99981.91;6225653;22;44846;-89
2023/11/11 01:07:37;;;;;;;;;6.67;3.00;;;;;11.16;100.00;99980.13;6227470;22;45444;-89
2023/11/11 01:10:08;;;;;;;;;6.33;5.33;;;;;11.29;100.00;99984.56;6225848;22;44744;-89
2023/11/11 01:12:34;;;;;;;;;3.67;3.00;;;;;11.14;100.00;99987.22;6175055;22;44804;-87
2023/11/11 01:14:59;;;;;;;;;7.00;6.33;;;;;11.12;100.00;99981.00;6225774;22;44741;-89
2023/11/11 01:17:25;;;;;;;;;5.00;4.00;;;;;11.16;100.00;99990.75;6227150;22;45263;-90
2023/11/11 01:19:50;;;;;;;;;10.33;7.00;;;;;11.15;100.00;99991.63;6198219;22;44784;-90
2023/11/11 01:22:19;;;;;;;;;3.00;3.00;;;;;11.16;100.00;99993.44;6200706;22;44840;-89
2023/11/11 01:24:45;;;;;;;;;4.00;4.00;;;;;11.17;100.00;99990.78;6174687;22;44815;-90
2023/11/11 01:27:11;;;;;;;;;2.00;2.00;;;;;11.21;100.00;99996.97;6199281;22;46902;-91
2023/11/11 01:29:38;;;;;;;;;3.00;3.00;;;;;11.19;100.00;99982.78;6198400;22;44841;-89
2023/11/11 01:32:05;;;;;;;;;2.00;2.00;;;;;11.30;100.00;99994.31;6199123;22;44991;-90
2023/11/11 01:34:30;;;;;;;;;2.00;2.00;;;;;11.36;100.00;99999.63;6224288;22;44750;-89
2023/11/11 01:37:04;;;;;;;;;3.00;3.00;;;;;11.64;100.00;100004.91;6197991;22;47310;-90
2023/11/11 01:39:31;;;;;;;;;2.00;2.00;;;;;11.50;100.00;99990.72;6226086;22;45380;-90
2023/11/11 01:41:57;;;;;;;;;2.67;2.00;;;;;11.54;100.00;99981.84;6226287;22;44692;-90
2023/11/11 01:44:23;;;;;;;;;2.00;2.00;;;;;11.58;100.00;99994.25;6225950;22;44964;-92
2023/11/11 01:46:49;;;;;;;;;3.00;2.67;;;;;11.55;100.00;99991.59;6226018;22;45594;-88
2023/11/11 01:49:15;;;;;;;;;2.33;2.00;;;;;11.58;100.00;99999.59;6222439;22;45009;-88
2023/11/11 01:51:41;;;;;;;;;2.67;2.67;;;;;11.54;100.00;99992.50;6224343;22;44732;-88
2023/11/11 01:57:29;;;;;;;;;6.33;2.00;;;;;11.55;100.00;99986.28;6224285;22;44866;-89
2023/11/11 01:59:55;;;;;;;;;4.00;2.67;;;;;11.57;100.00;99989.81;6223172;22;45000;-89
2023/11/11 02:02:20;;;;;;;;;1.00;1.00;;;;;11.55;100.00;99989.84;6221445;22;45249;-87
2023/11/11 02:04:46;;;;;;;;;3.00;3.00;;;;;11.48;100.00;99987.19;6197678;22;45071;-90
2023/11/11 02:07:12;;;;;;;;;2.00;2.00;;;;;11.49;100.00;99988.94;6224479;22;47194;-89
2023/11/11 02:09:38;;;;;;;;;3.00;2.00;;;;;11.49;100.00;100003.16;6226958;22;45336;-90
2023/11/11 02:12:04;;;;;;;;;3.00;3.00;;;;;11.39;100.00;99994.31;6198175;22;45159;-88
2023/11/11 02:14:30;;;;;;;;;2.00;1.67;;;;;11.30;100.00;99994.31;6225679;22;44747;-89
2023/11/11 02:16:56;;;;;;;;;3.33;2.33;;;;;11.27;100.00;99983.66;6224204;22;45926;-90
2023/11/11 02:19:21;;;;;;;;;2.00;2.00;;;;;11.36;100.00;99999.63;6197697;22;45344;-88
2023/11/11 02:21:48;;;;;;;;;3.00;2.00;;;;;11.35;100.00;99994.28;6223147;22;45274;-91
2023/11/11 02:24:13;;;;;;;;;2.33;2.33;;;;;11.37;100.00;100012.06;6195627;22;44913;-89
2023/11/11 02:26:39;;;;;;;;;4.00;3.33;;;;;11.34;100.00;100004.06;6221339;22;47414;-89
2023/11/11 02:29:04;;;;;;;;;3.00;2.00;;;;;11.30;100.00;100001.41;6197912;22;44768;-90
2023/11/11 02:31:33;;;;;;;;;3.67;3.67;;;;;11.45;100.00;100009.34;6223891;22;44790;-91
2023/11/11 02:33:58;;;;;;;;;1.00;1.00;;;;;11.15;100.00;99999.63;6222312;22;45764;-90
2023/11/11 02:36:25;;;;;;;;;2.00;2.00;;;;;11.30;100.00;100002.28;6225605;22;45183;-90
2023/11/11 02:38:51;;;;;;;;;2.00;2.00;;;;;11.21;100.00;100027.13;6198114;22;44803;-90
2023/11/11 02:41:16;;;;;;;;;3.67;3.00;;;;;11.17;100.00;100008.53;6199244;22;44814;-91
2023/11/11 02:43:43;;;;;;;;;2.67;2.67;;;;;11.32;100.00;100007.63;6199217;22;44761;-90
2023/11/11 02:46:08;;;;;;;;;4.00;3.00;;;;;11.16;100.00;100010.28;6225573;22;45117;-89
2023/11/11 02:48:34;;;;;;;;;2.33;2.33;;;;;11.07;100.00;99991.66;6223816;22;44882;-90
2023/11/11 02:50:59;;;;;;;;;4.00;4.00;;;;;11.12;100.00;100010.28;6199617;22;44880;-90
2023/11/11 02:53:25;;;;;;;;;2.00;2.00;;;;;11.12;100.00;100012.94;6200672;22;44729;-91
2023/11/11 02:55:51;;;;;;;;;4.00;2.00;;;;;11.13;100.00;100012.03;6226349;22;45413;-90
2023/11/11 02:58:24;;;;;;;;;4.00;4.00;;;;;11.34;100.00;100006.72;6224791;22;44880;-91
2023/11/11 03:00:50;;;;;;;;;3.00;3.00;;;;;11.09;100.00;100004.94;6225142;22;44646;-89
2023/11/11 03:03:15;;;;;;;;;3.00;3.00;;;;;11.12;100.00;100010.28;6196897;22;44865;-91
2023/11/11 03:05:40;;;;;;;;;7.00;3.33;;;;;11.16;100.00;100009.41;6221365;22;47240;-87
2023/11/11 03:08:06;;;;;;;;;1.67;1.67;;;;;11.13;100.00;100002.31;6225560;22;44774;-89
2023/11/11 03:10:31;;;;;;;;;2.00;2.00;;;;;11.20;100.00;100014.69;6221864;22;44759;-90
2023/11/11 03:12:58;;;;;;;;;3.33;1.33;;;;;11.32;100.00;100027.13;6224816;22;44817;-92
2023/11/11 03:15:24;;;;;;;;;1.67;1.67;;;;;11.35;100.00;100013.84;6224368;22;47257;-91
2023/11/11 03:17:49;;;;;;;;;1.67;1.67;;;;;11.47;100.00;100028.00;6224262;22;44971;-88
2023/11/11 03:20:16;;;;;;;;;2.00;2.00;;;;;11.64;100.00;100034.19;6227782;22;45367;-90
2023/11/11 03:22:42;;;;;;;;;3.00;2.33;;;;;11.54;100.00;100030.66;6225948;22;44863;-91
2023/11/11 03:25:08;;;;;;;;;1.00;1.00;;;;;11.60;100.00;100037.75;6198699;22;46902;-91
2023/11/11 03:27:34;;;;;;;;;3.00;3.00;;;;;11.50;100.00;100014.69;6224566;22;45340;-90
2023/11/11 03:29:59;;;;;;;;;1.33;1.33;;;;;11.50;100.00;100017.38;6201071;22;45205;-90
2023/11/11 03:32:27;;;;;;;;;3.33;2.00;;;;;11.75;100.00;100027.06;6226719;22;44774;-89
2023/11/11 03:34:52;;;;;;;;;4.00;2.00;;;;;11.69;100.00;100045.72;6224753;22;47200;-91
2023/11/11 03:37:18;;;;;;;;;3.00;3.00;;;;;11.60;100.00;100037.75;6228708;22;44796;-89
2023/11/11 03:39:44;;;;;;;;;3.00;3.00;;;;;11.66;100.00;100050.19;6201647;22;44908;-90
2023/11/11 03:42:10;;;;;;;;;2.00;2.00;;;;;11.59;100.00;100033.31;6228190;22;44818;-89
2023/11/11 03:44:38;;;;;;;;;1.33;1.33;;;;;11.72;100.00;100051.06;6227233;22;45519;-89
2023/11/11 03:47:04;;;;;;;;;1.00;1.00;;;;;11.45;100.00;100032.44;6199852;22;44704;-90
2023/11/11 03:49:29;;;;;;;;;2.00;2.00;;;;;11.29;100.00;100019.16;6225985;22;44835;-89
2023/11/11 03:51:55;;;;;;;;;4.00;4.00;;;;;11.36;100.00;100025.34;6229130;22;44717;-90
2023/11/11 03:54:21;;;;;;;;;2.00;1.67;;;;;11.28;100.00;100020.03;6201811;22;47241;-88
2023/11/11 03:56:50;;;;;;;;;3.00;3.00;;;;;11.39;100.00;100028.91;6227608;22;44749;-90
2023/11/11 03:59:15;;;;;;;;;3.00;1.00;;;;;11.30;100.00;100015.59;6225706;22;44887;-89
2023/11/11 04:01:41;;;;;;;;;1.33;1.33;;;;;11.43;100.00;100048.41;6228035;22;44720;-89
2023/11/11 04:04:08;;;;;;;;;2.67;2.67;;;;;11.30;100.00;100028.91;6228454;22;45168;-88
2023/11/11 04:06:35;;;;;;;;;3.00;2.00;;;;;11.45;100.00;100035.09;6228649;22;44638;-89
2023/11/11 04:09:01;;;;;;;;;4.00;2.00;;;;;11.52;100.00;100050.19;6227534;22;44791;-90
2023/11/11 04:11:27;;;;;;;;;2.00;2.00;;;;;11.35;100.00;100019.16;6227406;22;45405;-90
2023/11/11 04:13:57;;;;;;;;;1.67;1.00;;;;;11.42;100.00;100009.38;6200562;22;46820;-90
2023/11/11 04:16:26;;;;;;;;;2.00;2.00;;;;;11.39;100.00;100030.66;6228389;22;45199;-89
2023/11/11 04:18:51;;;;;;;;;1.33;1.33;;;;;11.32;100.00;100034.22;6225453;22;45253;-89
2023/11/11 04:21:17;;;;;;;;;2.33;2.00;;;;;11.20;100.00;100024.47;6200127;22;44825;-90
2023/11/11 04:23:49;;;;;;;;;3.00;2.00;;;;;11.67;100.00;100063.47;6226774;22;45285;-89
2023/11/11 04:26:15;;;;;;;;;2.00;2.00;;;;;11.24;100.00;100036.88;6202713;22;45069;-89
2023/11/11 04:28:43;;;;;;;;;2.00;2.00;;;;;11.23;100.00;100044.88;6202208;22;44792;-89
2023/11/11 04:31:11;;;;;;;;;1.00;1.00;;;;;11.47;100.00;100071.47;6227816;22;44860;-89
2023/11/11 04:33:37;;;;;;;;;1.00;1.00;;;;;11.43;100.00;100092.78;6227543;22;47031;-89
2023/11/11 04:36:04;;;;;;;;;2.00;2.00;;;;;11.30;100.00;100057.31;6200768;22;44989;-90
2023/11/11 04:38:29;;;;;;;;;2.67;1.00;;;;;11.29;100.00;100066.16;6203048;22;44794;-87
2023/11/11 04:40:57;;;;;;;;;2.67;1.33;;;;;11.36;100.00;100058.19;6201849;22;44817;-91
2023/11/11 04:43:23;;;;;;;;;1.00;1.00;;;;;11.25;100.00;100059.97;6230539;22;45592;-90
2023/11/11 04:52:35;;;;;;;;;2.00;2.00;;;;;11.40;100.00;100081.25;6229387;22;44812;-90
2023/11/11 04:55:03;;;;;;;;;5.33;2.00;;;;;11.34;100.00;100086.59;6202609;22;47349;-90
2023/11/11 04:57:29;;;;;;;;;3.33;2.00;;;;;11.38;100.00;100088.34;6228489;22;45314;-90
2023/11/11 04:59:55;;;;;;;;;3.00;2.00;;;;;11.30;100.00;100078.59;6202399;22;44773;-88
2023/11/11 05:02:21;;;;;;;;;2.00;2.00;;;;;11.31;100.00;100077.69;6227880;22;44821;-90
2023/11/11 05:08:08;;;;;;;;;2.33;2.33;;;;;11.26;100.00;100087.47;6229517;22;44792;-88
2023/11/11 05:10:35;;;;;;;;;1.00;1.00;;;;;11.23;100.00;100083.03;6202608;22;44835;-89
2023/11/11 05:13:08;;;;;;;;;3.00;2.00;;;;;11.17;100.00;100091.03;6228767;22;45023;-89
2023/11/11 05:15:47;;;;;;;;;1.00;1.00;;;;;11.35;100.00;100088.38;6229377;22;45560;-89
2023/11/11 05:18:12;;;;;;;;;0.33;0.33;;;;;11.23;100.00;100096.34;6227234;22;44796;-90
2023/11/11 05:20:41;;;;;;;;;6.33;3.00;;;;;11.22;100.00;100091.91;6229102;22;44786;-90
2023/11/11 05:23:09;;;;;;;;;2.33;2.00;;;;;11.28;100.00;100091.03;6229734;22;44718;-90
2023/11/11 05:25:35;;;;;;;;;3.00;1.67;;;;;11.31;100.00;100099.91;6227580;22;47002;-90
2023/11/11 05:28:00;;;;;;;;;7.00;3.00;;;;;11.16;100.00;100081.25;6202031;22;44828;-86
2023/11/11 05:30:26;;;;;;;;;2.33;2.33;;;;;11.31;100.00;100097.25;6227228;22;45183;-90
2023/11/11 05:32:55;;;;;;;;;1.67;1.67;;;;;11.51;100.00;100093.69;6203033;22;44777;-90
2023/11/11 05:35:20;;;;;;;;;1.00;1.00;;;;;11.28;100.00;100091.91;6200533;22;47069;-90
2023/11/11 05:37:47;;;;;;;;;3.00;2.00;;;;;11.19;100.00;100094.56;6203264;22;44714;-89
2023/11/11 05:40:17;;;;;;;;;2.00;2.00;;;;;11.23;100.00;100106.09;6228265;22;44865;-90
2023/11/11 05:42:47;;;;;;;;;2.00;2.00;;;;;11.26;100.00;100104.31;6227751;22;45285;-90
2023/11/11 05:45:13;;;;;;;;;2.00;2.00;;;;;11.17;100.00;100089.25;6227590;22;47237;-90
2023/11/11 05:51:05;;;;;;;;;1.00;1.00;;;;;11.41;100.00;100115.00;6230752;22;44717;-89
2023/11/11 05:53:33;;;;;;;;;2.00;2.00;;;;;11.16;100.00;100119.38;6229684;22;44774;-90
2023/11/11 05:55:58;;;;;;;;;1.00;1.00;;;;;11.13;100.00;100118.50;6203596;22;47145;-90
2023/11/11 05:58:24;;;;;;;;;1.67;1.67;;;;;11.13;100.00;100122.06;6229826;22;44867;-90
2023/11/11 06:00:50;;;;;;;;;1.00;1.00;;;;;11.04;100.00;100124.69;6230139;22;45236;-85
2023/11/11 06:03:15;;;;;;;;;1.67;1.67;;;;;11.04;100.00;100131.78;6230831;22;45102;-89
2023/11/11 06:05:41;;;;;;;;;2.00;2.00;;;;;10.99;100.00;100122.03;6229485;22;45012;-91
2023/11/11 06:08:10;;;;;;;;;1.00;1.00;;;;;10.98;100.00;100136.19;6203562;22;44860;-91
2023/11/11 06:10:37;;;;;;;;;2.67;2.00;;;;;10.95;100.00;100136.22;6231017;22;44812;-90
2023/11/11 06:13:05;;;;;;;;;2.00;2.00;;;;;10.95;100.00;100148.63;6231011;22;44861;-88
2023/11/11 06:15:32;;;;;;;;;1.00;1.00;;;;;10.94;100.00;100152.16;6228305;22;45224;-89
2023/11/11 06:17:57;;;;;;;;;0.67;0.67;;;;;10.91;100.00;100144.19;6229762;22;44756;-91
2023/11/11 06:20:22;;;;;;;;;2.67;1.00;;;;;10.94;100.00;100145.06;6203530;22;44806;-90
2023/11/11 06:22:52;;;;;;;;;1.67;1.67;;;;;10.96;100.00;100150.38;6228225;22;44816;-89
2023/11/11 06:25:19;;;;;;;;;2.33;1.67;;;;;10.98;100.00;100162.81;6228121;22;45336;-89
2023/11/11 06:27:45;;;;;;;;;4.00;3.00;;;;;10.94;100.00;100146.84;6202671;22;44848;-90
2023/11/11 06:30:11;;;;;;;;;2.00;1.00;;;;;10.97;100.00;100150.41;6229959;22;44805;-91
2023/11/11 06:32:37;;;;;;;;;4.33;3.33;;;;;10.95;100.00;100140.66;6230930;22;44739;-91
2023/11/11 06:35:04;;;;;;;;;3.33;2.33;;;;;10.93;100.00;100134.44;6201481;22;45993;-90
2023/11/11 06:37:30;;;;;;;;;1.00;1.00;;;;;10.99;100.00;100134.44;6229426;22;44823;-87
2023/11/11 06:39:57;;;;;;;;;2.00;1.00;;;;;11.16;100.00;100140.69;6201119;22;44900;-87
2023/11/11 06:42:22;;;;;;;;;2.00;2.00;;;;;11.08;100.00;100142.44;6228804;22;44840;-90
2023/11/11 06:44:47;;;;;;;;;1.67;1.00;;;;;11.12;100.00;100143.34;6202694;22;46882;-87
2023/11/11 06:47:15;;;;;;;;;4.00;2.33;;;;;11.13;100.00;100155.75;6230289;22;45340;-89
2023/11/11 06:49:41;;;;;;;;;3.33;1.67;;;;;11.26;100.00;100151.34;6230635;22;44706;-89
2023/11/11 06:52:06;;;;;;;;;3.00;1.00;;;;;11.23;100.00;100161.97;6203674;22;44790;-90
2023/11/11 06:54:32;;;;;;;;;1.00;1.00;;;;;11.15;100.00;100138.00;6228694;22;46748;-89
2023/11/11 06:56:57;;;;;;;;;2.00;2.00;;;;;11.31;100.00;100171.78;6229906;22;44835;-90
2023/11/11 06:59:23;;;;;;;;;1.00;1.00;;;;;11.32;100.00;100165.56;6178458;22;45380;-90
2023/11/11 07:01:55;;;;;;;;;2.00;2.00;;;;;11.38;100.00;100173.56;6231775;22;44905;-88
2023/11/11 07:04:22;;;;;;;;;2.00;2.00;;;;;11.42;100.00;100169.13;6204169;22;46894;-89
2023/11/11 07:06:47;;;;;;;;;1.00;1.00;;;;;11.41;100.00;100160.25;6232012;22;44804;-90
2023/11/11 07:09:14;;;;;;;;;2.67;1.00;;;;;11.43;100.00;100143.38;6178135;22;45009;-90
2023/11/11 07:11:39;;;;;;;;;1.00;1.00;;;;;11.47;100.00;100164.69;6202438;22;45039;-88
2023/11/11 07:14:06;;;;;;;;;2.33;2.33;;;;;11.41;100.00;100130.97;6228843;22;45084;-89
2023/11/11 07:16:33;;;;;;;;;3.33;3.33;;;;;11.63;100.00;100154.94;6202517;22;45128;-89
2023/11/11 07:18:58;;;;;;;;;1.33;1.33;;;;;11.49;100.00;100140.72;6203474;22;44802;-90
2023/11/11 07:21:27;;;;;;;;;2.00;2.00;;;;;11.76;100.00;100153.19;6229463;22;44989;-89
2023/11/11 07:23:53;;;;;;;;;2.33;2.33;;;;;11.75;100.00;100165.59;6227526;22;46667;-90
2023/11/11 07:26:19;;;;;;;;;2.67;2.67;;;;;11.90;100.00;100191.38;6201623;22;45446;-91
2023/11/11 07:28:48;;;;;;;;;3.00;3.00;;;;;11.75;100.00;100168.25;6229729;22;45170;-89
2023/11/11 07:31:17;;;;;;;;;2.00;2.00;;;;;11.62;100.00;100166.50;6228949;22;44764;-90
2023/11/11 07:33:43;;;;;;;;;2.33;2.33;;;;;11.62;100.00;100177.13;6201889;22;47156;-90
2023/11/11 07:36:10;;;;;;;;;3.00;1.67;;;;;11.60;100.00;100179.78;6201157;22;44906;-90
2023/11/11 07:38:40;;;;;;;;;1.00;1.00;;;;;11.84;100.00;100210.00;6228234;22;44790;-91
2023/11/11 07:41:10;;;;;;;;;3.00;3.00;;;;;11.41;100.00;100186.88;6202298;22;44840;-90
2023/11/11 07:43:42;;;;;;;;;1.67;1.67;;;;;11.47;100.00;100215.28;6228185;22;45894;-89
2023/11/11 07:46:09;;;;;;;;;2.00;2.00;;;;;11.57;100.00;100221.50;6224939;22;44795;-90
2023/11/11 07:48:35;;;;;;;;;1.33;1.00;;;;;11.57;100.00;100227.75;6223606;22;44836;-91
2023/11/11 07:51:02;;;;;;;;;2.00;2.00;;;;;11.49;100.00;100201.97;6222624;22;45387;-91
2023/11/11 07:53:33;;;;;;;;;3.00;3.00;;;;;11.60;100.00;100194.91;6198383;22;47048;-89
2023/11/11 07:56:02;;;;;;;;;3.00;3.00;;;;;11.39;100.00;100195.72;6226356;22;44832;-89
2023/11/11 07:58:27;;;;;;;;;2.00;2.00;;;;;11.57;100.00;100225.09;6224044;22;44793;-90
2023/11/11 08:00:53;;;;;;;;;0.00;0.00;;;;;11.63;100.00;100232.16;6226056;22;44762;-91
2023/11/11 08:03:27;;;;;;;;;1.67;1.00;;;;;11.65;100.00;100217.06;6225999;22;45409;-90
2023/11/11 08:05:54;;;;;;;;;2.00;2.00;;;;;11.85;100.00;100242.88;6228165;22;45187;-88
2023/11/11 08:08:19;;;;;;;;;1.00;1.00;;;;;11.80;100.00;100235.75;6200152;22;44778;-88
2023/11/11 08:10:45;;;;;;;;;2.33;2.33;;;;;11.87;100.00;100217.09;6225098;22;44889;-91
2023/11/11 08:13:10;;;;;;;;;2.67;2.33;;;;;11.83;100.00;100224.19;6199820;22;46906;-90
2023/11/11 08:15:36;;;;;;;;;2.00;2.00;;;;;11.80;100.00;100201.13;6225754;22;44776;-90
2023/11/11 08:18:03;;;;;;;;;2.33;2.33;;;;;12.00;100.00;100222.47;6224867;22;44701;-90
2023/11/11 08:20:28;;;;;;;;;1.67;1.67;;;;;12.19;100.00;100239.34;6226321;22;44933;-89
2023/11/11 08:22:54;;;;;;;;;2.00;2.00;;;;;12.16;100.00;100222.47;6200219;22;45456;-90
2023/11/11 08:25:22;;;;;;;;;1.00;1.00;;;;;12.30;100.00;100242.00;6226774;22;44800;-90
2023/11/11 08:27:50;;;;;;;;;6.33;3.33;;;;;12.37;100.00;100237.56;6201114;22;44787;-90
2023/11/11 08:30:16;;;;;;;;;4.00;2.00;;;;;12.19;100.00;100199.34;6199974;22;44879;-90
2023/11/11 08:32:42;;;;;;;;;1.00;1.00;;;;;12.30;100.00;100214.44;6226302;22;47735;-91
2023/11/11 08:35:08;;;;;;;;;4.00;2.00;;;;;12.66;100.00;100247.28;6226119;22;44836;-91
2023/11/11 08:37:34;;;;;;;;;2.00;2.00;;;;;12.68;100.00;100238.38;6202409;22;44726;-91
2023/11/11 08:40:06;;;;;;;;;3.00;1.33;;;;;12.63;100.00;100210.81;6226896;22;44866;-91
2023/11/11 08:42:31;;;;;;;;;4.67;1.67;;;;;12.54;100.00;100206.41;6200879;22;47261;-91
2023/11/11 08:44:58;;;;;;;;;4.00;3.00;;;;;12.61;100.00;100216.16;6227872;22;44686;-92
2023/11/11 08:48:04;;;;;;;;;2.00;2.00;;;;;13.04;100.00;100235.59;6227726;22;44816;-90
2023/11/11 08:50:29;;;;;;;;;1.00;1.00;;;;;12.72;100.00;100248.13;6226392;22;44956;-87
2023/11/11 08:52:57;;;;;;;;;3.67;3.33;;;;;12.71;100.00;100240.16;6224598;22;48650;-90
2023/11/11 08:55:23;;;;;;;;;2.00;2.00;;;;;12.70;100.00;100238.38;6226398;22;44801;-90
2023/11/11 08:57:50;;;;;;;;;3.67;2.67;;;;;12.74;100.00;100242.81;6224309;22;44801;-88
2023/11/11 09:01:06;;;;;;;;;2.00;2.00;;;;;13.11;100.00;100248.00;6224579;22;45268;-90
2023/11/11 09:03:31;;;;;;;;;2.00;2.00;;;;;12.96;100.00;100244.50;6225578;22;47103;-90
2023/11/11 09:05:57;;;;;;;;;4.00;4.00;;;;;13.07;100.00;100240.91;6227912;22;44905;-90
2023/11/11 09:08:23;;;;;;;;;2.00;2.00;;;;;13.11;100.00;100226.66;6202411;22;44861;-90
2023/11/11 09:10:49;;;;;;;;;3.67;3.00;;;;;13.23;100.00;100233.72;6201281;22;45211;-90
2023/11/11 09:14:07;;;;;;;;;1.00;1.00;;;;;13.60;100.00;100234.44;6226224;22;45361;-90
2023/11/11 09:16:33;;;;;;;;;3.00;2.67;;;;;13.45;100.00;100231.84;6224615;22;44870;-91
2023/11/11 09:18:59;;;;;;;;;3.00;3.00;;;;;13.50;100.00;100232.72;6225454;22;44855;-90
2023/11/11 09:21:26;;;;;;;;;1.33;1.33;;;;;13.61;100.00;100236.19;6198564;22;44813;-91
2023/11/11 09:23:52;;;;;;;;;2.00;2.00;;;;;13.45;100.00;100222.03;6172507;22;48289;-91
2023/11/11 09:26:19;;;;;;;;;5.33;3.00;;;;;13.66;100.00;100223.72;6199002;22;45488;-90
2023/11/11 09:28:46;;;;;;;;;2.33;2.33;;;;;13.59;100.00;100224.63;6226837;22;45339;-92
2023/11/11 09:31:12;;;;;;;;;5.00;2.67;;;;;13.56;100.00;100224.66;6198264;22;44929;-89
2023/11/11 09:33:39;;;;;;;;;2.00;2.00;;;;;13.66;100.00;100231.72;6221921;22;47227;-88
2023/11/11 09:36:05;;;;;;;;;2.00;2.00;;;;;13.69;100.00;100231.69;6222606;22;44864;-89
2023/11/11 09:38:32;;;;;;;;;2.33;2.00;;;;;13.71;100.00;100240.59;6225999;22;44820;-91
2023/11/11 09:40:58;;;;;;;;;2.33;2.33;;;;;13.71;100.00;100235.25;6226404;22;44764;-93
2023/11/11 09:43:24;;;;;;;;;3.00;3.00;;;;;13.66;100.00;100229.06;6222831;22;45968;-88
2023/11/11 09:45:58;;;;;;;;;2.33;2.00;;;;;13.82;100.00;100220.94;6220849;22;44735;-89
2023/11/11 09:48:25;;;;;;;;;5.50;4.00;;;;;13.87;100.00;100219.97;6196001;22;44742;-90
2023/11/11 09:50:50;;;;;;;;;4.67;3.33;;;;;13.84;100.00;100229.84;6199852;22;44846;-91
2023/11/11 09:53:16;;;;;;;;;3.00;2.00;;;;;13.87;100.00;100228.00;6224244;22;45528;-92
2023/11/11 09:55:43;;;;;;;;;5.00;2.67;;;;;13.90;100.00;100219.09;6197334;22;46033;-91
2023/11/11 09:58:10;;;;;;;;;4.00;4.00;;;;;13.99;100.00;100225.22;6225017;22;44751;-90
2023/11/11 10:00:35;;;;;;;;;3.67;3.67;;;;;14.00;100.00;100234.16;6223578;22;44744;-90
2023/11/11 10:03:05;;;;;;;;;2.67;2.67;;;;;14.20;100.00;100234.88;6197431;22;47015;-91
2023/11/11 10:05:31;;;;;;;;;2.00;2.00;;;;;13.99;100.00;100235.91;6222421;22;44841;-91
2023/11/11 10:07:56;;;;;;;;;2.67;2.67;;;;;14.01;100.00;100235.91;6223127;22;44788;-91
2023/11/11 10:10:24;;;;;;;;;1.00;1.00;;;;;13.86;100.00;100212.88;6225097;22;44873;-91
2023/11/11 10:12:51;;;;;;;;;1.00;1.00;;;;;13.75;100.00;100225.41;6199449;22;47121;-91
2023/11/11 10:15:16;;;;;;;;;3.00;1.67;;;;;13.68;100.00;100235.28;6223571;22;44696;-91
2023/11/11 10:17:42;;;;;;;;;2.67;2.67;;;;;13.56;100.00;100227.34;6196902;22;44815;-91
2023/11/11 10:20:14;;;;;;;;;1.33;1.33;;;;;13.61;100.00;100212.16;6198096;22;45388;-92
2023/11/11 10:22:46;;;;;;;;;2.67;2.00;;;;;13.76;100.00;100251.25;6221721;22;46908;-89
2023/11/11 10:25:18;;;;;;;;;3.00;3.00;;;;;13.68;100.00;100229.06;6223135;22;44797;-89
2023/11/11 10:31:07;;;;;;;;;3.33;2.00;;;;;13.75;100.00;100242.34;6225034;22;44791;-91
2023/11/11 10:33:34;;;;;;;;;3.00;2.33;;;;;13.83;100.00;100249.44;6222926;22;47108;-93
2023/11/11 10:36:02;;;;;;;;;3.00;3.00;;;;;13.90;100.00;100253.84;6178486;23;44954;-90
2023/11/11 10:38:27;;;;;;;;;4.00;3.00;;;;;13.85;100.00;100247.63;6192481;23;44948;-91
2023/11/11 10:44:17;;;;;;;;;3.00;3.00;;;;;14.13;100.00;100251.84;6193123;23;44907;-90
2023/11/11 10:46:44;;;;;;;;;7.00;2.00;;;;;13.94;100.00;100253.81;6193618;23;44804;-91
2023/11/11 10:49:09;;;;;;;;;7.00;4.00;;;;;13.88;100.00;100251.16;6193023;23;45316;-90
2023/11/11 10:51:35;;;;;;;;;2.33;2.00;;;;;13.94;100.00;100258.28;6190844;22;44778;-89
2023/11/11 10:54:05;;;;;;;;;2.00;2.00;;;;;13.91;100.00;100243.13;6190770;23;46643;-89
2023/11/11 10:56:34;;;;;;;;;4.00;4.00;;;;;13.85;100.00;100247.63;6190333;23;44924;-91
2023/11/11 10:59:03;;;;;;;;;3.67;2.00;;;;;13.97;100.00;100251.09;6165253;23;45440;-90
2023/11/11 11:01:30;;;;;;;;;3.00;2.00;;;;;13.92;100.00;100238.69;6166088;23;44806;-86
2023/11/11 11:03:56;;;;;;;;;4.00;3.00;;;;;14.03;100.00;100231.44;6193514;23;46165;-90
2023/11/11 11:06:37;;;;;;;;;4.00;4.00;;;;;14.44;100.00;100235.56;6168761;23;44762;-88
2023/11/11 11:09:14;;;;;;;;;3.67;2.00;;;;;14.58;100.00;100235.41;6191868;22;45005;-90
2023/11/11 11:12:17;;;;;;;;;7.33;3.33;;;;;14.95;100.00;100235.91;6191116;22;44853;-89
2023/11/11 11:14:49;;;;;;;;;3.00;3.00;;;;;14.94;100.00;100212.69;6188727;23;46663;-90
2023/11/11 11:17:15;;;;;;;;;7.67;5.00;;;;;14.84;98.47;100219.06;6190808;23;45374;-91
2023/11/11 11:19:51;;;;;;;;;3.33;3.00;;;;;15.18;100.00;100216.84;6192165;23;44706;-91
2023/11/11 11:22:17;;;;;;;;;1.33;1.33;;;;;15.09;100.00;100221.44;6194336;23;44761;-90
2023/11/11 11:24:45;;;;;;;;;2.33;2.33;;;;;15.18;100.00;100215.97;6194424;22;45643;-91
2023/11/11 11:27:12;;;;;;;;;3.33;3.00;;;;;15.15;96.60;100211.56;6193862;22;44764;-91
2023/11/11 11:29:40;;;;;;;;;2.00;2.00;;;;;15.05;97.80;100222.38;6168586;23;44823;-91
2023/11/11 11:32:08;;;;;;;;;7.00;3.00;;;;;15.07;99.05;100217.91;6197318;22;44705;-91
2023/11/11 11:34:36;;;;;;;;;4.33;2.00;;;;;15.12;98.71;100216.06;6193374;23;47028;-90
2023/11/11 11:37:03;;;;;;;;;1.33;1.33;;;;;15.31;99.33;100205.97;6222737;22;45405;-91
2023/11/11 11:39:41;;;;;;;;;3.67;2.00;;;;;15.45;98.19;100203.09;6222359;22;44867;-90
2023/11/11 11:42:23;;;;;;;;;2.00;2.00;;;;;15.55;95.28;100207.41;6195923;22;44817;-88
2023/11/11 11:44:57;;;;;;;;;4.00;2.67;;;;;15.50;99.19;100207.50;6220229;22;46686;-91